createdAt,value
2022-09-02T00:00:08.539Z,100566.22
2022-09-02T00:04:18.846Z,100561.88
2022-09-02T00:08:20.685Z,100563.59
2022-09-02T00:12:22.365Z,100564.47
2022-09-02T00:16:25.253Z,100561.88
2022-09-02T00:20:28.422Z,100562.72
2022-09-02T00:24:30.943Z,100555.81
2022-09-02T00:28:32.551Z,100561.84
2022-09-02T00:32:34.209Z,100561.84
2022-09-02T00:36:36.197Z,100564.44
2022-09-02T00:40:41.422Z,100559.22
2022-09-02T00:44:45.769Z,100553.16
2022-09-02T00:49:09.354Z,100548.81
2022-09-02T00:53:13.501Z,100548.78
2022-09-02T00:57:19.630Z,100547.94
2022-09-02T01:01:22.630Z,100538.41
2022-09-02T01:05:29.755Z,100538.38
2022-09-02T01:09:33.385Z,100536.66
2022-09-02T01:13:39.819Z,100540.94
2022-09-02T01:17:47.772Z,100542.69
2022-09-02T01:21:51.958Z,100538.31
2022-09-02T01:25:54.560Z,100541.78
2022-09-02T01:29:58.726Z,100542.63
2022-09-02T01:34:00.859Z,100543.47
2022-09-02T01:38:02.659Z,100541.72
2022-09-02T01:42:05.222Z,100540.84
2022-09-02T01:46:07.079Z,100530.44
2022-09-02T01:50:09.848Z,100533.84
2022-09-02T01:54:12.042Z,100535.59
2022-09-02T01:58:13.659Z,100528.66
2022-09-02T02:02:16.017Z,100532.94
2022-09-02T02:06:19.288Z,100539.84
2022-09-02T02:10:22.630Z,100540.69
2022-09-02T02:14:24.444Z,100534.63
2022-09-02T02:18:26.292Z,100533.75
2022-09-02T02:22:28.266Z,100537.19
2022-09-02T02:26:30.346Z,100538.06
2022-09-02T02:30:32.462Z,100537.16
2022-09-02T02:34:35.968Z,100538.84
2022-09-02T02:38:39.441Z,100539.69
2022-09-02T02:42:41.172Z,100531.00
2022-09-02T02:46:43.152Z,100543.97
2022-09-02T02:50:45.088Z,100540.47
2022-09-02T02:54:46.866Z,100537.88
2022-09-02T02:58:48.630Z,100541.16
2022-09-02T03:02:50.715Z,100543.56
2022-09-02T03:06:55.574Z,100545.09
2022-09-02T03:10:57.960Z,100543.28
2022-09-02T03:15:04.712Z,100544.91
2022-09-02T03:19:07.078Z,100540.59
2022-09-02T03:23:10.029Z,100539.72
2022-09-02T03:27:12.256Z,100541.47
2022-09-02T03:31:20.798Z,100542.28
2022-09-02T03:35:23.464Z,100542.22
2022-09-02T03:39:25.354Z,100540.25
2022-09-02T03:43:27.187Z,100534.94
2022-09-02T03:47:30.027Z,100539.97
2022-09-02T03:51:32.784Z,100544.97
2022-09-02T03:55:36.776Z,100544.78
2022-09-02T03:59:39.681Z,100536.00
2022-09-02T04:03:41.484Z,100536.06
2022-09-02T04:07:44.176Z,100543.75
2022-09-02T04:11:49.545Z,100536.78
2022-09-02T04:15:51.849Z,100535.09
2022-09-02T04:20:53.544Z,100540.13
2022-09-02T04:25:14.426Z,100548.63
2022-09-02T04:29:16.732Z,100551.09
2022-09-02T04:33:19.413Z,100551.09
2022-09-02T04:37:22.352Z,100549.38
2022-09-02T04:41:29.418Z,100557.09
2022-09-02T04:45:34.034Z,100554.38
2022-09-02T04:49:36.564Z,100553.25
2022-09-02T04:53:39.393Z,100546.41
2022-09-02T04:57:41.319Z,100552.50
2022-09-02T05:01:43.942Z,100557.34
2022-09-02T05:06:06.398Z,100549.41
2022-09-02T05:10:09.871Z,100552.91
2022-09-02T05:14:16.371Z,100552.91
2022-09-02T05:18:18.807Z,100551.22
2022-09-02T05:22:21.010Z,100553.81
2022-09-02T05:26:49.403Z,100556.28
2022-09-02T05:36:14.838Z,100578.53
2022-09-02T05:40:16.772Z,100558.69
2022-09-02T05:44:25.801Z,100565.63
2022-09-02T05:48:46.230Z,100563.13
2022-09-02T05:52:52.427Z,100562.41
2022-09-02T05:56:58.950Z,100547.88
2022-09-02T06:01:00.668Z,100559.88
2022-09-02T06:05:02.921Z,100557.38
2022-09-02T06:09:08.421Z,100563.44
2022-09-02T06:13:11.576Z,100553.16
2022-09-02T06:17:14.005Z,100555.97
2022-09-02T06:21:27.155Z,100548.22
2022-09-02T06:25:31.326Z,100552.53
2022-09-02T06:29:33.658Z,100557.69
2022-09-02T06:33:35.687Z,100551.81
2022-09-02T06:37:37.586Z,100551.13
2022-09-02T06:41:41.735Z,100548.84
2022-09-02T06:45:46.081Z,100546.44
2022-09-02T06:49:48.473Z,100541.34
2022-09-02T06:53:52.123Z,100541.44
2022-09-02T06:57:55.408Z,100552.84
2022-09-02T07:01:58.142Z,100548.59
2022-09-02T07:06:09.448Z,100547.91
2022-09-02T07:10:13.898Z,100545.41
2022-09-02T07:14:20.631Z,100540.41
2022-09-02T07:18:28.437Z,100542.25
2022-09-02T07:22:30.541Z,100541.56
2022-09-02T07:26:32.351Z,100546.00
2022-09-02T07:30:34.558Z,100538.44
2022-09-02T07:34:43.168Z,100531.59
2022-09-02T07:38:47.600Z,100529.13
2022-09-02T07:42:50.285Z,100537.03
2022-09-02T07:46:53.549Z,100521.63
2022-09-02T07:50:57.340Z,100516.53
2022-09-02T07:55:00.395Z,100520.03
2022-09-02T07:59:03.872Z,100526.97
2022-09-02T08:07:13.027Z,100522.81
2022-09-02T08:11:14.599Z,100527.19
2022-09-02T08:15:16.454Z,100518.56
2022-09-02T08:19:18.861Z,100517.72
2022-09-02T08:23:35.988Z,100519.47
2022-09-02T08:27:39.262Z,100511.72
2022-09-02T08:31:41.203Z,100511.72
2022-09-02T08:35:42.843Z,100514.34
2022-09-02T08:39:44.972Z,100516.06
2022-09-02T08:43:47.541Z,100505.66
2022-09-02T08:47:54.132Z,100506.53
2022-09-02T08:52:02.623Z,100503.06
2022-09-02T08:56:06.394Z,100500.44
2022-09-02T09:00:08.765Z,100490.00
2022-09-02T09:04:24.774Z,100486.50
2022-09-02T09:08:54.275Z,100488.16
2022-09-02T09:13:31.255Z,100482.97
2022-09-02T09:17:37.275Z,100483.75
2022-09-02T09:21:40.799Z,100483.72
2022-09-02T09:25:43.415Z,100478.44
2022-09-02T09:29:45.345Z,100477.47
2022-09-02T09:33:57.065Z,100472.22
2022-09-02T09:37:59.299Z,100459.94
2022-09-02T09:42:14.450Z,100454.63
2022-09-02T09:46:32.284Z,100457.16
2022-09-02T09:50:34.161Z,100449.25
2022-09-02T09:54:35.829Z,100449.16
2022-09-02T09:58:40.494Z,100443.03
2022-09-02T10:02:53.489Z,100438.63
2022-09-02T10:06:55.076Z,100449.84
2022-09-02T10:11:26.792Z,100443.66
2022-09-02T10:15:34.297Z,100433.97
2022-09-02T10:19:44.676Z,100417.28
2022-09-02T10:23:58.193Z,100428.53
2022-09-02T10:28:32.847Z,100419.72
2022-09-02T10:33:05.180Z,100408.31
2022-09-02T10:37:17.583Z,100403.06
2022-09-02T10:41:25.239Z,100395.22
2022-09-02T10:45:46.686Z,100400.25
2022-09-02T10:49:54.227Z,100387.06
2022-09-02T10:54:13.574Z,100375.63
2022-09-02T10:58:34.723Z,100370.28
2022-09-02T11:02:47.943Z,100367.56
2022-09-02T11:07:02.498Z,100356.06
2022-09-02T11:11:11.165Z,100354.16
2022-09-02T11:15:20.184Z,100356.59
2022-09-02T11:19:27.925Z,100343.34
2022-09-02T11:23:52.339Z,100340.69
2022-09-02T11:28:12.475Z,100337.09
2022-09-02T11:32:27.947Z,100329.09
2022-09-02T11:36:30.993Z,100324.63
2022-09-02T11:45:20.554Z,100327.81
2022-09-02T11:49:34.486Z,100319.72
2022-09-02T11:53:42.123Z,100321.38
2022-09-02T11:57:52.333Z,100318.56
2022-09-02T12:01:55.285Z,100316.63
2022-09-02T12:06:15.139Z,100313.66
2022-09-02T12:10:47.740Z,100306.53
2022-09-02T12:14:50.139Z,100299.38
2022-09-02T12:18:53.985Z,100298.28
2022-09-02T12:22:55.571Z,100293.63
2022-09-02T12:26:57.103Z,100293.44
2022-09-02T12:31:02.105Z,100283.50
2022-09-02T12:35:11.036Z,100275.44
2022-09-02T12:39:27.994Z,100278.63
2022-09-02T12:43:38.971Z,100266.25
2022-09-02T12:48:01.440Z,100259.97
2022-09-02T12:52:10.894Z,100255.22
2022-09-02T12:56:15.598Z,100249.56
2022-09-02T13:00:50.908Z,100245.84
2022-09-02T13:05:01.326Z,100235.59
2022-09-02T13:09:28.293Z,100228.34
2022-09-02T13:13:48.421Z,100217.47
2022-09-02T13:18:09.185Z,100217.31
2022-09-02T13:22:19.702Z,100210.75
2022-09-02T13:27:11.932Z,100207.72
2022-09-02T13:31:21.526Z,100198.44
2022-09-02T13:35:27.238Z,100192.06
2022-09-02T13:39:28.958Z,100188.03
2022-09-02T13:43:30.586Z,100184.81
2022-09-02T13:47:33.304Z,100172.22
2022-09-02T13:51:35.077Z,100169.09
2022-09-02T13:55:39.540Z,100165.91
2022-09-02T13:59:50.047Z,100154.78
2022-09-02T14:03:53.813Z,100144.00
2022-09-02T14:07:58.612Z,100146.53
2022-09-02T14:12:00.763Z,100143.53
2022-09-02T14:16:29.531Z,100134.78
2022-09-02T14:20:31.152Z,100128.44
2022-09-02T14:24:40.234Z,100117.34
2022-09-02T14:28:41.856Z,100113.38
2022-09-02T14:32:43.503Z,100111.31
2022-09-02T14:36:45.096Z,100103.09
2022-09-02T14:40:48.049Z,100092.31
2022-09-02T14:44:50.066Z,100094.75
2022-09-02T14:49:02.639Z,100079.03
2022-09-02T14:53:07.856Z,100072.44
2022-09-02T14:57:35.585Z,100074.38
2022-09-02T15:01:42.523Z,100077.56
2022-09-02T15:05:44.794Z,100075.00
2022-09-02T15:09:47.083Z,100067.34
2022-09-02T15:13:48.676Z,100065.81
2022-09-02T15:17:50.285Z,100063.97
2022-09-02T15:21:51.893Z,100062.19
2022-09-02T15:25:54.232Z,100060.41
2022-09-02T15:29:56.002Z,100064.50
2022-09-02T15:33:58.464Z,100064.03
2022-09-02T15:38:02.058Z,100062.00
2022-09-02T15:42:03.886Z,100063.59
2022-09-02T15:46:22.140Z,100069.94
2022-09-02T15:50:23.751Z,100069.22
2022-09-02T15:54:25.368Z,100061.47
2022-09-02T15:58:26.998Z,100057.22
2022-09-02T16:02:28.690Z,100061.31
2022-09-02T16:06:33.023Z,100066.38
2022-09-02T16:10:36.970Z,100059.19
2022-09-02T16:14:38.689Z,100068.00
2022-09-02T16:18:41.900Z,100062.78
2022-09-02T16:22:43.572Z,100056.66
2022-09-02T16:26:45.160Z,100049.13
2022-09-02T16:30:46.832Z,100045.56
2022-09-02T16:34:49.100Z,100054.84
2022-09-02T16:38:50.907Z,100054.53
2022-09-02T16:42:52.516Z,100053.59
2022-09-02T16:46:54.453Z,100049.06
2022-09-02T16:51:02.221Z,100055.53
2022-09-02T16:55:04.126Z,100046.97
2022-09-02T16:59:10.955Z,100050.38
2022-09-02T17:03:12.636Z,100051.84
2022-09-02T17:07:14.207Z,100048.91
2022-09-02T17:11:39.665Z,100053.69
2022-09-02T17:15:41.527Z,100053.91
2022-09-02T17:19:43.176Z,100057.72
2022-09-02T17:23:45.014Z,100054.34
2022-09-02T17:27:46.628Z,100051.88
2022-09-02T17:31:48.403Z,100039.69
2022-09-02T17:35:57.219Z,100034.72
2022-09-02T17:39:58.817Z,100042.91
2022-09-02T17:44:00.825Z,100037.09
2022-09-02T17:48:31.937Z,100041.69
2022-09-02T17:52:24.911Z,100042.78
2022-09-02T17:56:49.514Z,100037.81
2022-09-02T18:00:56.703Z,100031.13
2022-09-02T18:05:28.995Z,100032.25
2022-09-02T18:09:31.367Z,100047.38
2022-09-02T18:13:58.928Z,100041.50
2022-09-02T18:18:00.630Z,100041.75
2022-09-02T18:22:15.250Z,100041.06
2022-09-02T18:26:41.995Z,100045.63
2022-09-02T18:30:58.963Z,100038.03
2022-09-02T18:35:37.887Z,100035.66
2022-09-02T18:40:06.746Z,100047.22
2022-09-02T18:44:36.211Z,100047.31
2022-09-02T18:48:39.190Z,100057.06
2022-09-02T18:52:41.989Z,100050.25
2022-09-02T18:56:51.113Z,100052.13
2022-09-02T19:00:58.627Z,100055.75
2022-09-02T19:05:01.665Z,100062.84
2022-09-02T19:09:08.471Z,100064.72
2022-09-02T19:13:11.116Z,100071.78
2022-09-02T19:17:12.740Z,100071.88
2022-09-02T19:21:28.117Z,100078.88
2022-09-02T19:25:32.915Z,100078.13
2022-09-02T19:29:38.846Z,100088.66
2022-09-02T19:33:41.321Z,100081.84
2022-09-02T19:37:47.196Z,100084.59
2022-09-02T19:41:48.963Z,100077.69
2022-09-02T19:45:51.612Z,100076.03
2022-09-02T19:49:54.868Z,100087.44
2022-09-02T19:53:57.622Z,100079.69
2022-09-02T19:58:00.665Z,100076.31
2022-09-02T20:02:03.258Z,100074.63
2022-09-02T20:06:05.978Z,100079.03
2022-09-02T20:10:08.808Z,100075.66
2022-09-02T20:14:10.474Z,100080.06
2022-09-02T20:18:14.865Z,100084.44
2022-09-02T20:22:18.189Z,100088.00
2022-09-02T20:26:34.188Z,100082.88
2022-09-02T20:30:42.693Z,100075.09
2022-09-02T20:34:56.173Z,100069.06
2022-09-02T20:39:18.874Z,100065.63
2022-09-02T20:43:38.786Z,100064.84
2022-09-02T20:47:55.775Z,100064.91
2022-09-02T20:52:19.601Z,100066.69
2022-09-02T20:56:38.575Z,100065.88
2022-09-02T21:00:53.438Z,100072.00
2022-09-02T21:05:26.077Z,100065.09
2022-09-02T21:09:27.666Z,100060.72
2022-09-02T21:13:56.864Z,100059.06
2022-09-02T21:18:37.428Z,100068.69
2022-09-02T21:22:43.823Z,100068.75
2022-09-02T21:26:56.663Z,100060.94
2022-09-02T21:31:08.540Z,100063.66
2022-09-02T21:35:35.293Z,100057.59
2022-09-02T21:39:43.532Z,100057.56
2022-09-02T21:44:23.864Z,100060.13
2022-09-02T21:49:02.950Z,100063.66
2022-09-02T21:53:13.785Z,100054.16
2022-09-02T21:57:46.702Z,100062.81
2022-09-02T22:01:48.464Z,100057.59
2022-09-02T22:06:08.375Z,100060.25
2022-09-02T22:10:29.200Z,100052.50
2022-09-02T22:14:44.298Z,100046.59
2022-09-02T22:19:00.242Z,100050.09
2022-09-02T22:23:07.141Z,100059.72
2022-09-02T22:27:17.732Z,100060.63
2022-09-02T22:31:25.976Z,100062.34
2022-09-02T22:35:34.181Z,100067.63
2022-09-02T22:39:51.303Z,100067.69
2022-09-02T22:44:19.296Z,100059.91
2022-09-02T22:48:48.976Z,100056.50
2022-09-02T22:52:57.311Z,100053.94
2022-09-02T22:57:35.500Z,100050.44
2022-09-02T23:01:58.846Z,100058.16
2022-09-02T23:06:26.139Z,100059.06
2022-09-02T23:10:27.717Z,100053.84
2022-09-02T23:15:10.851Z,100047.75
2022-09-02T23:19:26.046Z,100051.25
2022-09-02T23:23:49.290Z,100052.94
2022-09-02T23:28:04.882Z,100054.69
2022-09-02T23:32:39.271Z,100040.78
2022-09-02T23:37:05.032Z,100047.69
2022-09-02T23:41:08.789Z,100043.38
2022-09-02T23:45:21.752Z,100035.56
2022-09-02T23:49:57.711Z,100033.00
2022-09-02T23:54:20.796Z,100031.25
2022-09-02T23:58:41.146Z,100028.75
